sensor_id;sensor_type;location;lat;lon;timestamp;pressure;altitude;pressure_sealevel;temperature;humidity
929;BME280;451;47.988;7.842;2022-07-11T00:08:40;99071.66;;;16.29;90.43
929;BME280;451;47.988;7.842;2022-07-11T00:17:41;99056.41;;;16.10;91.16
929;BME280;451;47.988;7.842;2022-07-11T00:26:43;99041.00;;;15.99;91.96
929;BME280;451;47.988;7.842;2022-07-11T00:35:45;99036.25;;;15.94;91.75
929;BME280;451;47.988;7.842;2022-07-11T00:44:47;99048.56;;;16.02;91.46
929;BME280;451;47.988;7.842;2022-07-11T00:53:50;99065.22;;;15.96;93.14
929;BME280;451;47.988;7.842;2022-07-11T01:02:56;99052.63;;;15.98;93.70
929;BME280;451;47.988;7.842;2022-07-11T01:11:58;99058.66;;;15.70;95.08
929;BME280;451;47.988;7.842;2022-07-11T01:21:00;99031.19;;;15.57;95.99
929;BME280;451;47.988;7.842;2022-07-11T01:30:04;99044.91;;;15.60;97.62
929;BME280;451;47.988;7.842;2022-07-11T01:39:06;99032.22;;;15.41;98.80
929;BME280;451;47.988;7.842;2022-07-11T01:48:08;99017.28;;;15.19;100.00
929;BME280;451;47.988;7.842;2022-07-11T01:57:09;99029.19;;;15.44;100.00
929;BME280;451;47.988;7.842;2022-07-11T02:06:11;99025.03;;;15.35;100.00
929;BME280;451;47.988;7.842;2022-07-11T02:15:13;99010.34;;;15.18;100.00
929;BME280;451;47.988;7.842;2022-07-11T02:24:15;99019.59;;;15.07;100.00
929;BME280;451;47.988;7.842;2022-07-11T02:33:18;99011.28;;;14.96;100.00
929;BME280;451;47.988;7.842;2022-07-11T02:42:19;99008.75;;;14.58;100.00
929;BME280;451;47.988;7.842;2022-07-11T02:51:21;99019.63;;;14.63;100.00
929;BME280;451;47.988;7.842;2022-07-11T03:00:23;99036.31;;;14.78;100.00
929;BME280;451;47.988;7.842;2022-07-11T03:09:24;99037.34;;;14.92;100.00
929;BME280;451;47.988;7.842;2022-07-11T03:18:26;99030.66;;;14.81;100.00
929;BME280;451;47.988;7.842;2022-07-11T03:27:27;99023.81;;;14.72;100.00
929;BME280;451;47.988;7.842;2022-07-11T03:36:29;99017.72;;;14.86;100.00
929;BME280;451;47.988;7.842;2022-07-11T03:45:31;99023.38;;;14.54;100.00
929;BME280;451;47.988;7.842;2022-07-11T03:54:33;99014.19;;;14.27;100.00
929;BME280;451;47.988;7.842;2022-07-11T04:03:35;99019.88;;;14.39;100.00
929;BME280;451;47.988;7.842;2022-07-11T04:12:36;99009.00;;;14.34;100.00
929;BME280;451;47.988;7.842;2022-07-11T04:21:38;99025.47;;;14.59;100.00
929;BME280;451;47.988;7.842;2022-07-11T04:30:39;99026.75;;;14.92;100.00
929;BME280;451;47.988;7.842;2022-07-11T04:39:41;99012.50;;;14.78;100.00
929;BME280;451;47.988;7.842;2022-07-11T04:48:46;99041.34;;;15.39;100.00
929;BME280;451;47.988;7.842;2022-07-11T04:57:48;99032.22;;;15.41;100.00
929;BME280;451;47.988;7.842;2022-07-11T05:06:50;99023.38;;;15.70;100.00
929;BME280;451;47.988;7.842;2022-07-11T05:15:52;99026.59;;;15.87;98.62
929;BME280;451;47.988;7.842;2022-07-11T05:24:54;99029.03;;;16.37;95.46
929;BME280;451;47.988;7.842;2022-07-11T05:33:55;99035.00;;;17.08;89.21
929;BME280;451;47.988;7.842;2022-07-11T05:42:57;99032.50;;;17.48;89.03
929;BME280;451;47.988;7.842;2022-07-11T05:51:59;99032.47;;;17.34;89.12
929;BME280;451;47.988;7.842;2022-07-11T06:01:01;99028.47;;;17.65;90.08
929;BME280;451;47.988;7.842;2022-07-11T06:10:02;99028.94;;;18.28;86.47
929;BME280;451;47.988;7.842;2022-07-11T06:19:04;99017.84;;;18.77;83.03
929;BME280;451;47.988;7.842;2022-07-11T06:28:07;99014.59;;;18.42;84.88
929;BME280;451;47.988;7.842;2022-07-11T06:37:08;99029.94;;;18.53;86.67
929;BME280;451;47.988;7.842;2022-07-11T06:46:10;99023.94;;;18.97;83.82
929;BME280;451;47.988;7.842;2022-07-11T06:55:12;99029.81;;;19.12;82.07
929;BME280;451;47.988;7.842;2022-07-11T07:04:14;99022.50;;;19.39;81.83
929;BME280;451;47.988;7.842;2022-07-11T07:13:16;99033.19;;;19.39;84.24
929;BME280;451;47.988;7.842;2022-07-11T07:22:17;99013.38;;;19.98;80.65
929;BME280;451;47.988;7.842;2022-07-11T07:31:19;99018.59;;;20.61;76.85
929;BME280;451;47.988;7.842;2022-07-11T07:40:21;98993.53;;;20.55;74.64
929;BME280;451;47.988;7.842;2022-07-11T07:49:23;98978.38;;;20.74;69.44
929;BME280;451;47.988;7.842;2022-07-11T07:58:24;98995.72;;;21.19;67.23
929;BME280;451;47.988;7.842;2022-07-11T08:07:26;99001.22;;;21.54;67.52
929;BME280;451;47.988;7.842;2022-07-11T08:16:29;98997.31;;;21.39;63.33
929;BME280;451;47.988;7.842;2022-07-11T08:25:32;98929.50;;;21.33;61.68
929;BME280;451;47.988;7.842;2022-07-11T08:34:34;98971.81;;;22.19;60.07
929;BME280;451;47.988;7.842;2022-07-11T08:43:35;98979.84;;;22.31;58.26
929;BME280;451;47.988;7.842;2022-07-11T08:52:38;98969.22;;;22.59;57.57
929;BME280;451;47.988;7.842;2022-07-11T09:01:44;98956.69;;;23.00;55.76
929;BME280;451;47.988;7.842;2022-07-11T09:10:46;98943.56;;;23.71;52.62
929;BME280;451;47.988;7.842;2022-07-11T09:19:49;98939.19;;;24.76;50.30
929;BME280;451;47.988;7.842;2022-07-11T09:29:00;98943.22;;;26.97;44.95
929;BME280;451;47.988;7.842;2022-07-11T09:38:10;98936.22;;;27.01;43.89
929;BME280;451;47.988;7.842;2022-07-11T09:47:12;98943.81;;;27.14;44.09
929;BME280;451;47.988;7.842;2022-07-11T09:56:14;98928.75;;;28.39;41.59
929;BME280;451;47.988;7.842;2022-07-11T10:05:16;98933.88;;;27.35;42.53
929;BME280;451;47.988;7.842;2022-07-11T10:14:18;98905.28;;;27.69;42.28
929;BME280;451;47.988;7.842;2022-07-11T10:23:22;98944.38;;;27.36;45.31
929;BME280;451;47.988;7.842;2022-07-11T10:32:25;98933.56;;;27.11;47.32
929;BME280;451;47.988;7.842;2022-07-11T10:41:27;98950.13;;;25.93;52.03
929;BME280;451;47.988;7.842;2022-07-11T10:50:34;98912.09;;;26.27;50.87
929;BME280;451;47.988;7.842;2022-07-11T10:59:59;98909.81;;;26.08;52.27
929;BME280;451;47.988;7.842;2022-07-11T11:09:01;98909.72;;;26.93;50.08
929;BME280;451;47.988;7.842;2022-07-11T11:27:26;98893.03;;;27.01;49.54
929;BME280;451;47.988;7.842;2022-07-11T11:36:28;98899.69;;;26.26;52.48
929;BME280;451;47.988;7.842;2022-07-11T11:45:30;98883.09;;;26.49;52.49
929;BME280;451;47.988;7.842;2022-07-11T11:54:32;98889.66;;;26.16;54.04
929;BME280;451;47.988;7.842;2022-07-11T12:04:00;98885.16;;;26.32;55.77
929;BME280;451;47.988;7.842;2022-07-11T12:13:02;98880.47;;;26.64;55.20
929;BME280;451;47.988;7.842;2022-07-11T12:22:04;98859.09;;;26.05;55.46
929;BME280;451;47.988;7.842;2022-07-11T12:31:07;98867.09;;;26.32;56.54
929;BME280;451;47.988;7.842;2022-07-11T12:40:09;98856.50;;;26.78;54.98
929;BME280;451;47.988;7.842;2022-07-11T12:49:11;98853.13;;;27.48;52.88
929;BME280;451;47.988;7.842;2022-07-11T12:58:13;98851.63;;;26.75;55.43
929;BME280;451;47.988;7.842;2022-07-11T13:07:28;98836.63;;;27.75;52.20
929;BME280;451;47.988;7.842;2022-07-11T13:16:49;98826.09;;;27.13;53.16
929;BME280;451;47.988;7.842;2022-07-11T13:25:51;98833.59;;;26.85;54.59
929;BME280;451;47.988;7.842;2022-07-11T13:34:53;98881.06;;;26.81;55.05
929;BME280;451;47.988;7.842;2022-07-11T13:43:54;98819.78;;;26.67;54.69
929;BME280;451;47.988;7.842;2022-07-11T13:52:56;98830.41;;;27.75;52.88
929;BME280;451;47.988;7.842;2022-07-11T14:01:58;98830.63;;;28.08;51.46
929;BME280;451;47.988;7.842;2022-07-11T14:11:00;98827.41;;;26.95;54.23
929;BME280;451;47.988;7.842;2022-07-11T14:20:02;98806.53;;;28.12;52.19
929;BME280;451;47.988;7.842;2022-07-11T14:29:06;98771.00;;;27.44;52.55
929;BME280;451;47.988;7.842;2022-07-11T14:38:07;98800.69;;;27.44;52.75
929;BME280;451;47.988;7.842;2022-07-11T14:47:09;98760.19;;;27.44;52.16
929;BME280;451;47.988;7.842;2022-07-11T14:56:11;98783.69;;;27.69;52.46
929;BME280;451;47.988;7.842;2022-07-11T15:05:13;98774.25;;;27.51;52.98
929;BME280;451;47.988;7.842;2022-07-11T15:14:15;98785.84;;;27.62;52.94
929;BME280;451;47.988;7.842;2022-07-11T15:23:17;98792.88;;;27.38;53.36
929;BME280;451;47.988;7.842;2022-07-11T15:32:19;98780.97;;;27.74;52.45
929;BME280;451;47.988;7.842;2022-07-11T15:41:21;98803.34;;;26.83;56.24
929;BME280;451;47.988;7.842;2022-07-11T15:50:22;98740.75;;;27.42;53.69
929;BME280;451;47.988;7.842;2022-07-11T15:59:24;98787.13;;;26.63;56.12
929;BME280;451;47.988;7.842;2022-07-11T16:08:26;98755.81;;;26.52;56.41
929;BME280;451;47.988;7.842;2022-07-11T16:17:28;98811.88;;;26.40;56.77
929;BME280;451;47.988;7.842;2022-07-11T16:26:30;98789.16;;;26.31;58.35
929;BME280;451;47.988;7.842;2022-07-11T16:35:32;98797.88;;;26.53;57.45
929;BME280;451;47.988;7.842;2022-07-11T16:44:34;98810.75;;;26.31;57.48
929;BME280;451;47.988;7.842;2022-07-11T16:53:36;98813.59;;;26.86;57.55
929;BME280;451;47.988;7.842;2022-07-11T17:02:38;98817.41;;;26.85;56.38
929;BME280;451;47.988;7.842;2022-07-11T17:11:41;98818.94;;;26.61;57.61
929;BME280;451;47.988;7.842;2022-07-11T17:20:43;98833.44;;;26.45;57.10
929;BME280;451;47.988;7.842;2022-07-11T17:29:46;98822.16;;;26.53;57.13
929;BME280;451;47.988;7.842;2022-07-11T17:38:49;98835.88;;;25.99;59.34
929;BME280;451;47.988;7.842;2022-07-11T17:47:52;98822.94;;;25.91;59.92
929;BME280;451;47.988;7.842;2022-07-11T17:56:53;98826.28;;;25.66;60.68
929;BME280;451;47.988;7.842;2022-07-11T18:05:55;98808.59;;;25.49;61.83
929;BME280;451;47.988;7.842;2022-07-11T18:14:57;98795.31;;;25.05;62.83
929;BME280;451;47.988;7.842;2022-07-11T18:23:59;98824.59;;;25.28;62.47
929;BME280;451;47.988;7.842;2022-07-11T18:33:01;98831.59;;;24.98;62.98
929;BME280;451;47.988;7.842;2022-07-11T18:42:03;98841.25;;;24.72;64.21
929;BME280;451;47.988;7.842;2022-07-11T18:51:07;98823.47;;;24.49;64.54
929;BME280;451;47.988;7.842;2022-07-11T19:00:09;98869.69;;;24.46;66.49
929;BME280;451;47.988;7.842;2022-07-11T19:09:12;98860.63;;;24.13;67.65
929;BME280;451;47.988;7.842;2022-07-11T19:18:14;98876.25;;;24.33;68.07
929;BME280;451;47.988;7.842;2022-07-11T19:27:16;98877.97;;;23.84;70.17
929;BME280;451;47.988;7.842;2022-07-11T19:36:18;98884.63;;;23.65;71.46
929;BME280;451;47.988;7.842;2022-07-11T19:45:20;98894.06;;;23.51;73.12
929;BME280;451;47.988;7.842;2022-07-11T19:54:21;98908.31;;;23.23;73.61
929;BME280;451;47.988;7.842;2022-07-11T20:03:42;98915.34;;;23.41;73.55
929;BME280;451;47.988;7.842;2022-07-11T20:12:44;98935.75;;;22.85;81.04
929;BME280;451;47.988;7.842;2022-07-11T20:21:45;98939.78;;;22.36;85.81
929;BME280;451;47.988;7.842;2022-07-11T20:30:47;98933.13;;;21.92;87.74
929;BME280;451;47.988;7.842;2022-07-11T20:39:48;98950.78;;;21.81;87.21
929;BME280;451;47.988;7.842;2022-07-11T20:48:50;98954.53;;;21.92;83.66
929;BME280;451;47.988;7.842;2022-07-11T20:57:52;98963.34;;;21.81;82.44
929;BME280;451;47.988;7.842;2022-07-11T21:06:53;98965.56;;;21.72;81.42
929;BME280;451;47.988;7.842;2022-07-11T21:15:55;98952.97;;;21.61;81.71
929;BME280;451;47.988;7.842;2022-07-11T21:24:57;98963.78;;;21.54;83.70
929;BME280;451;47.988;7.842;2022-07-11T21:33:58;98942.00;;;21.21;84.11
929;BME280;451;47.988;7.842;2022-07-11T21:43:00;98973.28;;;21.20;84.87
929;BME280;451;47.988;7.842;2022-07-11T21:52:02;98961.72;;;20.90;86.48
929;BME280;451;47.988;7.842;2022-07-11T22:01:04;98992.00;;;20.84;88.02
929;BME280;451;47.988;7.842;2022-07-11T22:10:05;99000.72;;;20.61;89.47
929;BME280;451;47.988;7.842;2022-07-11T22:19:07;98982.34;;;20.46;89.84
929;BME280;451;47.988;7.842;2022-07-11T22:28:09;98966.47;;;20.27;90.11
929;BME280;451;47.988;7.842;2022-07-11T22:37:10;98971.97;;;20.32;89.83
929;BME280;451;47.988;7.842;2022-07-11T22:46:12;98967.16;;;20.22;89.58
929;BME280;451;47.988;7.842;2022-07-11T22:55:15;98964.38;;;20.10;90.26
929;BME280;451;47.988;7.842;2022-07-11T23:04:17;98953.81;;;19.72;93.16
929;BME280;451;47.988;7.842;2022-07-11T23:13:18;98991.66;;;19.56;95.86
929;BME280;451;47.988;7.842;2022-07-11T23:22:20;98996.22;;;19.49;97.13
929;BME280;451;47.988;7.842;2022-07-11T23:31:22;98970.91;;;19.27;97.64
929;BME280;451;47.988;7.842;2022-07-11T23:40:23;98954.97;;;19.14;96.98
929;BME280;451;47.988;7.842;2022-07-11T23:49:25;98968.81;;;19.36;96.85
929;BME280;451;47.988;7.842;2022-07-11T23:58:26;98974.66;;;19.13;98.61
